sensor_id;sensor_type;location;lat;lon;timestamp;P1;durP1;ratioP1;P2;durP2;ratioP2
50337;SDS011;46221;51.178;5.900;2022-08-19T00:00:48;10.27;;;9.27;;
50337;SDS011;46221;51.178;5.900;2022-08-19T00:03:16;9.80;;;8.90;;
50337;SDS011;46221;51.178;5.900;2022-08-19T00:05:43;9.13;;;8.27;;
50337;SDS011;46221;51.178;5.900;2022-08-19T00:08:09;9.57;;;8.68;;
50337;SDS011;46221;51.178;5.900;2022-08-19T00:10:35;9.43;;;8.55;;
50337;SDS011;46221;51.178;5.900;2022-08-19T00:13:02;9.18;;;8.38;;
50337;SDS011;46221;51.178;5.900;2022-08-19T00:15:28;9.25;;;8.45;;
50337;SDS011;46221;51.178;5.900;2022-08-19T00:17:54;9.05;;;8.25;;
50337;SDS011;46221;51.178;5.900;2022-08-19T00:20:21;10.02;;;8.45;;
50337;SDS011;46221;51.178;5.900;2022-08-19T00:22:47;9.63;;;8.73;;
50337;SDS011;46221;51.178;5.900;2022-08-19T00:25:14;9.15;;;8.25;;
50337;SDS011;46221;51.178;5.900;2022-08-19T00:27:42;9.50;;;8.60;;
50337;SDS011;46221;51.178;5.900;2022-08-19T00:30:09;9.18;;;8.32;;
50337;SDS011;46221;51.178;5.900;2022-08-19T00:32:36;9.15;;;8.27;;
50337;SDS011;46221;51.178;5.900;2022-08-19T00:35:03;9.93;;;8.93;;
50337;SDS011;46221;51.178;5.900;2022-08-19T00:37:29;8.77;;;7.95;;
50337;SDS011;46221;51.178;5.900;2022-08-19T00:39:56;9.90;;;8.57;;
50337;SDS011;46221;51.178;5.900;2022-08-19T00:42:22;10.55;;;9.55;;
50337;SDS011;46221;51.178;5.900;2022-08-19T00:44:48;9.68;;;8.88;;
50337;SDS011;46221;51.178;5.900;2022-08-19T00:47:16;9.23;;;8.32;;
50337;SDS011;46221;51.178;5.900;2022-08-19T00:49:47;9.88;;;8.88;;
50337;SDS011;46221;51.178;5.900;2022-08-19T00:52:28;10.35;;;9.35;;
50337;SDS011;46221;51.178;5.900;2022-08-19T00:54:55;9.80;;;8.88;;
50337;SDS011;46221;51.178;5.900;2022-08-19T00:57:25;9.82;;;8.90;;
50337;SDS011;46221;51.178;5.900;2022-08-19T00:59:53;9.65;;;8.82;;
50337;SDS011;46221;51.178;5.900;2022-08-19T01:02:28;9.80;;;8.90;;
50337;SDS011;46221;51.178;5.900;2022-08-19T01:04:54;10.40;;;9.35;;
50337;SDS011;46221;51.178;5.900;2022-08-19T01:07:21;10.25;;;9.25;;
50337;SDS011;46221;51.178;5.900;2022-08-19T01:09:49;10.52;;;9.52;;
50337;SDS011;46221;51.178;5.900;2022-08-19T01:12:15;10.80;;;9.68;;
50337;SDS011;46221;51.178;5.900;2022-08-19T01:14:42;10.70;;;9.68;;
50337;SDS011;46221;51.178;5.900;2022-08-19T01:17:10;9.45;;;8.55;;
50337;SDS011;46221;51.178;5.900;2022-08-19T01:19:39;9.90;;;8.77;;
50337;SDS011;46221;51.178;5.900;2022-08-19T01:24:59;9.20;;;8.40;;
50337;SDS011;46221;51.178;5.900;2022-08-19T01:27:25;9.93;;;9.02;;
50337;SDS011;46221;51.178;5.900;2022-08-19T01:29:55;9.85;;;8.85;;
50337;SDS011;46221;51.178;5.900;2022-08-19T01:32:22;10.25;;;9.30;;
50337;SDS011;46221;51.178;5.900;2022-08-19T01:34:59;10.43;;;9.20;;
50337;SDS011;46221;51.178;5.900;2022-08-19T01:37:28;10.50;;;9.50;;
50337;SDS011;46221;51.178;5.900;2022-08-19T01:39:56;9.73;;;8.82;;
50337;SDS011;46221;51.178;5.900;2022-08-19T01:42:22;9.88;;;8.98;;
50337;SDS011;46221;51.178;5.900;2022-08-19T01:44:55;10.65;;;9.68;;
50337;SDS011;46221;51.178;5.900;2022-08-19T01:47:22;10.38;;;9.45;;
50337;SDS011;46221;51.178;5.900;2022-08-19T01:49:48;24.70;;;10.77;;
50337;SDS011;46221;51.178;5.900;2022-08-19T01:52:14;10.55;;;9.55;;
50337;SDS011;46221;51.178;5.900;2022-08-19T01:54:41;10.73;;;9.73;;
50337;SDS011;46221;51.178;5.900;2022-08-19T01:57:08;10.65;;;9.55;;
50337;SDS011;46221;51.178;5.900;2022-08-19T01:59:35;10.57;;;9.57;;
50337;SDS011;46221;51.178;5.900;2022-08-19T02:02:04;10.57;;;9.63;;
50337;SDS011;46221;51.178;5.900;2022-08-19T02:04:33;11.75;;;9.50;;
50337;SDS011;46221;51.178;5.900;2022-08-19T02:07:00;11.07;;;10.07;;
50337;SDS011;46221;51.178;5.900;2022-08-19T02:09:26;11.25;;;10.18;;
50337;SDS011;46221;51.178;5.900;2022-08-19T02:11:52;10.48;;;9.48;;
50337;SDS011;46221;51.178;5.900;2022-08-19T02:14:19;10.65;;;9.65;;
50337;SDS011;46221;51.178;5.900;2022-08-19T02:16:45;10.88;;;9.95;;
50337;SDS011;46221;51.178;5.900;2022-08-19T02:19:12;10.75;;;9.65;;
50337;SDS011;46221;51.178;5.900;2022-08-19T02:21:38;10.93;;;9.93;;
50337;SDS011;46221;51.178;5.900;2022-08-19T02:24:05;10.38;;;9.48;;
50337;SDS011;46221;51.178;5.900;2022-08-19T02:26:31;11.13;;;9.95;;
50337;SDS011;46221;51.178;5.900;2022-08-19T02:28:58;10.23;;;9.43;;
50337;SDS011;46221;51.178;5.900;2022-08-19T02:31:25;11.73;;;10.40;;
50337;SDS011;46221;51.178;5.900;2022-08-19T02:33:52;11.10;;;9.95;;
50337;SDS011;46221;51.178;5.900;2022-08-19T02:36:21;11.93;;;10.13;;
50337;SDS011;46221;51.178;5.900;2022-08-19T02:38:48;10.43;;;9.48;;
50337;SDS011;46221;51.178;5.900;2022-08-19T02:41:21;10.63;;;9.63;;
50337;SDS011;46221;51.178;5.900;2022-08-19T02:43:52;11.23;;;9.75;;
50337;SDS011;46221;51.178;5.900;2022-08-19T02:46:38;10.73;;;9.23;;
50337;SDS011;46221;51.178;5.900;2022-08-19T02:49:05;10.68;;;9.68;;
50337;SDS011;46221;51.178;5.900;2022-08-19T02:51:34;9.10;;;8.25;;
50337;SDS011;46221;51.178;5.900;2022-08-19T02:54:00;10.23;;;9.20;;
50337;SDS011;46221;51.178;5.900;2022-08-19T02:56:27;11.18;;;10.07;;
50337;SDS011;46221;51.178;5.900;2022-08-19T02:58:54;9.75;;;8.55;;
50337;SDS011;46221;51.178;5.900;2022-08-19T03:01:22;9.75;;;8.90;;
50337;SDS011;46221;51.178;5.900;2022-08-19T03:03:48;9.57;;;8.63;;
50337;SDS011;46221;51.178;5.900;2022-08-19T03:06:16;9.75;;;8.75;;
50337;SDS011;46221;51.178;5.900;2022-08-19T03:08:43;12.00;;;9.50;;
50337;SDS011;46221;51.178;5.900;2022-08-19T03:11:17;9.80;;;8.80;;
50337;SDS011;46221;51.178;5.900;2022-08-19T03:13:44;10.25;;;9.25;;
50337;SDS011;46221;51.178;5.900;2022-08-19T03:16:10;10.07;;;9.18;;
50337;SDS011;46221;51.178;5.900;2022-08-19T03:18:37;9.30;;;8.32;;
50337;SDS011;46221;51.178;5.900;2022-08-19T03:21:05;32.30;;;10.70;;
50337;SDS011;46221;51.178;5.900;2022-08-19T03:23:32;25.20;;;9.05;;
50337;SDS011;46221;51.178;5.900;2022-08-19T03:25:58;25.55;;;9.13;;
50337;SDS011;46221;51.178;5.900;2022-08-19T03:28:41;10.20;;;8.25;;
50337;SDS011;46221;51.178;5.900;2022-08-19T03:31:15;8.73;;;7.88;;
50337;SDS011;46221;51.178;5.900;2022-08-19T03:34:01;9.20;;;8.30;;
50337;SDS011;46221;51.178;5.900;2022-08-19T03:36:28;9.35;;;8.43;;
50337;SDS011;46221;51.178;5.900;2022-08-19T03:38:56;9.50;;;8.60;;
50337;SDS011;46221;51.178;5.900;2022-08-19T03:41:26;9.95;;;9.00;;
50337;SDS011;46221;51.178;5.900;2022-08-19T03:44:09;9.00;;;8.18;;
50337;SDS011;46221;51.178;5.900;2022-08-19T03:46:43;8.90;;;8.00;;
50337;SDS011;46221;51.178;5.900;2022-08-19T03:49:09;9.50;;;8.40;;
50337;SDS011;46221;51.178;5.900;2022-08-19T03:51:40;11.10;;;8.82;;
50337;SDS011;46221;51.178;5.900;2022-08-19T03:54:08;9.55;;;8.65;;
50337;SDS011;46221;51.178;5.900;2022-08-19T03:56:36;10.27;;;9.27;;
50337;SDS011;46221;51.178;5.900;2022-08-19T03:59:03;10.48;;;9.38;;
50337;SDS011;46221;51.178;5.900;2022-08-19T04:01:30;10.63;;;9.55;;
50337;SDS011;46221;51.178;5.900;2022-08-19T04:04:00;10.20;;;9.07;;
50337;SDS011;46221;51.178;5.900;2022-08-19T04:06:29;12.45;;;10.32;;
50337;SDS011;46221;51.178;5.900;2022-08-19T04:08:56;10.05;;;9.15;;
50337;SDS011;46221;51.178;5.900;2022-08-19T04:11:26;10.30;;;9.30;;
50337;SDS011;46221;51.178;5.900;2022-08-19T04:14:09;10.93;;;9.85;;
50337;SDS011;46221;51.178;5.900;2022-08-19T04:16:36;10.88;;;9.77;;
50337;SDS011;46221;51.178;5.900;2022-08-19T04:19:04;10.10;;;8.98;;
50337;SDS011;46221;51.178;5.900;2022-08-19T04:21:31;11.90;;;9.20;;
50337;SDS011;46221;51.178;5.900;2022-08-19T04:23:57;11.90;;;9.75;;
50337;SDS011;46221;51.178;5.900;2022-08-19T04:26:25;9.93;;;8.93;;
50337;SDS011;46221;51.178;5.900;2022-08-19T04:28:52;9.95;;;8.95;;
50337;SDS011;46221;51.178;5.900;2022-08-19T04:31:19;9.40;;;8.43;;
50337;SDS011;46221;51.178;5.900;2022-08-19T04:33:47;9.95;;;8.95;;
50337;SDS011;46221;51.178;5.900;2022-08-19T04:36:32;12.85;;;11.10;;
50337;SDS011;46221;51.178;5.900;2022-08-19T04:39:01;9.98;;;8.98;;
50337;SDS011;46221;51.178;5.900;2022-08-19T04:41:28;9.63;;;8.52;;
50337;SDS011;46221;51.178;5.900;2022-08-19T04:44:13;9.27;;;8.35;;
50337;SDS011;46221;51.178;5.900;2022-08-19T04:46:40;9.57;;;8.57;;
50337;SDS011;46221;51.178;5.900;2022-08-19T04:49:17;9.23;;;8.30;;
50337;SDS011;46221;51.178;5.900;2022-08-19T04:51:45;9.35;;;8.30;;
50337;SDS011;46221;51.178;5.900;2022-08-19T04:54:11;11.10;;;8.60;;
50337;SDS011;46221;51.178;5.900;2022-08-19T04:56:39;9.80;;;8.73;;
50337;SDS011;46221;51.178;5.900;2022-08-19T04:59:05;9.43;;;8.43;;
50337;SDS011;46221;51.178;5.900;2022-08-19T05:01:32;10.27;;;8.70;;
50337;SDS011;46221;51.178;5.900;2022-08-19T05:04:00;11.90;;;9.75;;
50337;SDS011;46221;51.178;5.900;2022-08-19T05:06:27;9.65;;;8.65;;
50337;SDS011;46221;51.178;5.900;2022-08-19T05:08:54;9.50;;;8.60;;
50337;SDS011;46221;51.178;5.900;2022-08-19T05:11:22;10.52;;;9.40;;
50337;SDS011;46221;51.178;5.900;2022-08-19T05:13:52;10.18;;;9.00;;
50337;SDS011;46221;51.178;5.900;2022-08-19T05:16:19;10.25;;;9.13;;
50337;SDS011;46221;51.178;5.900;2022-08-19T05:18:45;11.10;;;8.95;;
50337;SDS011;46221;51.178;5.900;2022-08-19T05:21:31;10.10;;;9.07;;
50337;SDS011;46221;51.178;5.900;2022-08-19T05:24:18;12.65;;;10.70;;
50337;SDS011;46221;51.178;5.900;2022-08-19T05:26:46;12.30;;;11.02;;
50337;SDS011;46221;51.178;5.900;2022-08-19T05:29:16;9.88;;;8.88;;
50337;SDS011;46221;51.178;5.900;2022-08-19T05:31:43;13.30;;;11.93;;
50337;SDS011;46221;51.178;5.900;2022-08-19T05:34:09;12.13;;;10.90;;
50337;SDS011;46221;51.178;5.900;2022-08-19T05:36:45;11.13;;;9.90;;
50337;SDS011;46221;51.178;5.900;2022-08-19T05:39:13;12.13;;;10.30;;
50337;SDS011;46221;51.178;5.900;2022-08-19T05:41:44;13.73;;;12.27;;
50337;SDS011;46221;51.178;5.900;2022-08-19T05:44:11;12.85;;;11.52;;
50337;SDS011;46221;51.178;5.900;2022-08-19T05:46:37;12.90;;;11.40;;
50337;SDS011;46221;51.178;5.900;2022-08-19T05:49:07;14.40;;;11.38;;
50337;SDS011;46221;51.178;5.900;2022-08-19T05:51:34;12.90;;;11.52;;
50337;SDS011;46221;51.178;5.900;2022-08-19T05:54:02;13.45;;;11.38;;
50337;SDS011;46221;51.178;5.900;2022-08-19T05:56:28;18.65;;;15.13;;
50337;SDS011;46221;51.178;5.900;2022-08-19T05:58:57;14.60;;;12.98;;
50337;SDS011;46221;51.178;5.900;2022-08-19T06:01:25;16.00;;;14.23;;
50337;SDS011;46221;51.178;5.900;2022-08-19T06:03:54;19.23;;;14.55;;
50337;SDS011;46221;51.178;5.900;2022-08-19T06:06:21;20.02;;;14.40;;
50337;SDS011;46221;51.178;5.900;2022-08-19T06:08:47;20.77;;;13.93;;
50337;SDS011;46221;51.178;5.900;2022-08-19T06:13:43;22.90;;;13.95;;
50337;SDS011;46221;51.178;5.900;2022-08-19T06:16:09;24.17;;;14.55;;
50337;SDS011;46221;51.178;5.900;2022-08-19T06:18:36;27.63;;;15.60;;
50337;SDS011;46221;51.178;5.900;2022-08-19T06:21:02;22.85;;;15.07;;
50337;SDS011;46221;51.178;5.900;2022-08-19T06:23:30;23.95;;;15.10;;
50337;SDS011;46221;51.178;5.900;2022-08-19T06:25:56;22.92;;;16.15;;
50337;SDS011;46221;51.178;5.900;2022-08-19T06:28:23;26.25;;;16.88;;
50337;SDS011;46221;51.178;5.900;2022-08-19T06:30:49;26.05;;;18.05;;
50337;SDS011;46221;51.178;5.900;2022-08-19T06:33:17;21.08;;;13.73;;
50337;SDS011;46221;51.178;5.900;2022-08-19T06:35:43;26.35;;;14.70;;
50337;SDS011;46221;51.178;5.900;2022-08-19T06:38:15;24.15;;;15.43;;
50337;SDS011;46221;51.178;5.900;2022-08-19T06:40:41;25.10;;;13.93;;
50337;SDS011;46221;51.178;5.900;2022-08-19T06:43:12;31.20;;;16.33;;
50337;SDS011;46221;51.178;5.900;2022-08-19T06:45:43;23.20;;;15.95;;
50337;SDS011;46221;51.178;5.900;2022-08-19T06:48:12;26.25;;;17.02;;
50337;SDS011;46221;51.178;5.900;2022-08-19T06:50:39;27.20;;;17.77;;
50337;SDS011;46221;51.178;5.900;2022-08-19T06:53:06;23.52;;;17.67;;
50337;SDS011;46221;51.178;5.900;2022-08-19T06:55:32;25.85;;;17.85;;
50337;SDS011;46221;51.178;5.900;2022-08-19T06:58:01;22.58;;;17.35;;
50337;SDS011;46221;51.178;5.900;2022-08-19T07:00:28;23.13;;;17.23;;
50337;SDS011;46221;51.178;5.900;2022-08-19T07:02:59;23.02;;;17.60;;
50337;SDS011;46221;51.178;5.900;2022-08-19T07:05:37;22.15;;;17.15;;
50337;SDS011;46221;51.178;5.900;2022-08-19T07:08:04;20.77;;;17.45;;
50337;SDS011;46221;51.178;5.900;2022-08-19T07:10:32;22.95;;;17.88;;
50337;SDS011;46221;51.178;5.900;2022-08-19T07:12:59;17.50;;;14.90;;
50337;SDS011;46221;51.178;5.900;2022-08-19T07:15:26;21.77;;;17.23;;
50337;SDS011;46221;51.178;5.900;2022-08-19T07:17:54;18.23;;;14.57;;
50337;SDS011;46221;51.178;5.900;2022-08-19T07:20:20;18.95;;;15.63;;
50337;SDS011;46221;51.178;5.900;2022-08-19T07:22:54;18.08;;;15.13;;
50337;SDS011;46221;51.178;5.900;2022-08-19T07:25:21;19.00;;;15.57;;
50337;SDS011;46221;51.178;5.900;2022-08-19T07:27:57;20.42;;;14.40;;
50337;SDS011;46221;51.178;5.900;2022-08-19T07:30:26;17.65;;;13.75;;
50337;SDS011;46221;51.178;5.900;2022-08-19T07:32:53;20.48;;;15.93;;
50337;SDS011;46221;51.178;5.900;2022-08-19T07:35:19;22.00;;;14.65;;
50337;SDS011;46221;51.178;5.900;2022-08-19T07:37:46;18.42;;;15.20;;
50337;SDS011;46221;51.178;5.900;2022-08-19T07:40:13;19.27;;;13.90;;
50337;SDS011;46221;51.178;5.900;2022-08-19T07:42:39;22.00;;;14.82;;
50337;SDS011;46221;51.178;5.900;2022-08-19T07:45:06;21.10;;;15.77;;
50337;SDS011;46221;51.178;5.900;2022-08-19T07:47:32;16.85;;;13.80;;
50337;SDS011;46221;51.178;5.900;2022-08-19T07:50:20;16.92;;;13.70;;
50337;SDS011;46221;51.178;5.900;2022-08-19T07:52:47;21.63;;;13.77;;
50337;SDS011;46221;51.178;5.900;2022-08-19T07:55:17;30.67;;;14.98;;
50337;SDS011;46221;51.178;5.900;2022-08-19T07:58:04;19.50;;;13.93;;
50337;SDS011;46221;51.178;5.900;2022-08-19T08:00:31;17.67;;;13.52;;
50337;SDS011;46221;51.178;5.900;2022-08-19T08:02:57;22.95;;;13.32;;
50337;SDS011;46221;51.178;5.900;2022-08-19T08:05:23;16.92;;;12.77;;
50337;SDS011;46221;51.178;5.900;2022-08-19T08:08:12;17.48;;;11.90;;
50337;SDS011;46221;51.178;5.900;2022-08-19T08:11:13;17.58;;;12.82;;
50337;SDS011;46221;51.178;5.900;2022-08-19T08:13:40;15.45;;;11.80;;
50337;SDS011;46221;51.178;5.900;2022-08-19T08:16:07;15.70;;;12.25;;
50337;SDS011;46221;51.178;5.900;2022-08-19T08:18:39;17.33;;;11.52;;
50337;SDS011;46221;51.178;5.900;2022-08-19T08:21:08;15.70;;;11.02;;
50337;SDS011;46221;51.178;5.900;2022-08-19T08:23:35;13.30;;;11.00;;
50337;SDS011;46221;51.178;5.900;2022-08-19T08:26:04;14.73;;;10.93;;
50337;SDS011;46221;51.178;5.900;2022-08-19T08:28:31;13.82;;;10.02;;
50337;SDS011;46221;51.178;5.900;2022-08-19T08:30:58;12.70;;;9.90;;
50337;SDS011;46221;51.178;5.900;2022-08-19T08:33:25;13.93;;;9.43;;
50337;SDS011;46221;51.178;5.900;2022-08-19T08:35:59;12.13;;;9.87;;
50337;SDS011;46221;51.178;5.900;2022-08-19T08:38:25;14.95;;;10.18;;
50337;SDS011;46221;51.178;5.900;2022-08-19T08:40:53;14.02;;;9.40;;
50337;SDS011;46221;51.178;5.900;2022-08-19T08:43:29;12.75;;;9.35;;
50337;SDS011;46221;51.178;5.900;2022-08-19T08:46:12;11.98;;;8.63;;
50337;SDS011;46221;51.178;5.900;2022-08-19T08:51:23;12.95;;;9.85;;
50337;SDS011;46221;51.178;5.900;2022-08-19T08:53:55;12.15;;;8.57;;
50337;SDS011;46221;51.178;5.900;2022-08-19T08:56:22;12.48;;;9.65;;
50337;SDS011;46221;51.178;5.900;2022-08-19T08:58:51;13.73;;;9.15;;
50337;SDS011;46221;51.178;5.900;2022-08-19T09:01:20;11.55;;;9.32;;
50337;SDS011;46221;51.178;5.900;2022-08-19T09:03:55;11.20;;;9.07;;
50337;SDS011;46221;51.178;5.900;2022-08-19T09:06:43;13.18;;;9.82;;
50337;SDS011;46221;51.178;5.900;2022-08-19T09:17:00;13.00;;;8.68;;
50337;SDS011;46221;51.178;5.900;2022-08-19T09:19:29;10.38;;;8.38;;
50337;SDS011;46221;51.178;5.900;2022-08-19T09:21:56;10.18;;;8.05;;
50337;SDS011;46221;51.178;5.900;2022-08-19T09:24:22;9.82;;;8.27;;
50337;SDS011;46221;51.178;5.900;2022-08-19T09:26:56;10.52;;;8.35;;
50337;SDS011;46221;51.178;5.900;2022-08-19T09:29:22;12.48;;;8.48;;
50337;SDS011;46221;51.178;5.900;2022-08-19T09:31:48;10.82;;;7.80;;
50337;SDS011;46221;51.178;5.900;2022-08-19T09:34:15;11.13;;;8.50;;
50337;SDS011;46221;51.178;5.900;2022-08-19T09:36:47;11.88;;;8.63;;
50337;SDS011;46221;51.178;5.900;2022-08-19T09:39:16;10.80;;;8.68;;
50337;SDS011;46221;51.178;5.900;2022-08-19T09:41:42;10.15;;;8.10;;
50337;SDS011;46221;51.178;5.900;2022-08-19T09:44:14;11.25;;;8.40;;
50337;SDS011;46221;51.178;5.900;2022-08-19T09:46:40;12.43;;;8.07;;
50337;SDS011;46221;51.178;5.900;2022-08-19T09:49:06;9.75;;;7.80;;
50337;SDS011;46221;51.178;5.900;2022-08-19T09:51:35;10.02;;;7.75;;
50337;SDS011;46221;51.178;5.900;2022-08-19T09:54:06;9.15;;;7.50;;
50337;SDS011;46221;51.178;5.900;2022-08-19T09:56:36;9.63;;;7.93;;
50337;SDS011;46221;51.178;5.900;2022-08-19T09:59:02;11.57;;;7.93;;
50337;SDS011;46221;51.178;5.900;2022-08-19T10:01:30;12.35;;;7.97;;
50337;SDS011;46221;51.178;5.900;2022-08-19T10:03:58;7.95;;;7.15;;
50337;SDS011;46221;51.178;5.900;2022-08-19T10:06:26;9.48;;;6.75;;
50337;SDS011;46221;51.178;5.900;2022-08-19T10:09:12;9.48;;;8.00;;
50337;SDS011;46221;51.178;5.900;2022-08-19T10:11:40;10.25;;;8.35;;
50337;SDS011;46221;51.178;5.900;2022-08-19T10:14:16;9.77;;;7.88;;
50337;SDS011;46221;51.178;5.900;2022-08-19T10:16:43;9.85;;;6.88;;
50337;SDS011;46221;51.178;5.900;2022-08-19T10:19:15;11.55;;;8.35;;
50337;SDS011;46221;51.178;5.900;2022-08-19T10:21:52;9.10;;;7.13;;
50337;SDS011;46221;51.178;5.900;2022-08-19T10:24:18;9.63;;;7.40;;
50337;SDS011;46221;51.178;5.900;2022-08-19T10:26:46;10.98;;;7.80;;
50337;SDS011;46221;51.178;5.900;2022-08-19T10:29:24;9.32;;;6.97;;
50337;SDS011;46221;51.178;5.900;2022-08-19T10:31:59;6.93;;;5.30;;
50337;SDS011;46221;51.178;5.900;2022-08-19T10:34:28;8.63;;;6.40;;
50337;SDS011;46221;51.178;5.900;2022-08-19T10:36:56;6.15;;;5.47;;
50337;SDS011;46221;51.178;5.900;2022-08-19T10:39:26;9.13;;;6.88;;
50337;SDS011;46221;51.178;5.900;2022-08-19T10:41:56;9.18;;;5.75;;
50337;SDS011;46221;51.178;5.900;2022-08-19T10:44:22;7.05;;;5.70;;
50337;SDS011;46221;51.178;5.900;2022-08-19T10:46:57;9.23;;;6.07;;
50337;SDS011;46221;51.178;5.900;2022-08-19T10:49:25;7.18;;;5.07;;
50337;SDS011;46221;51.178;5.900;2022-08-19T10:51:53;6.82;;;5.18;;
50337;SDS011;46221;51.178;5.900;2022-08-19T10:54:44;6.80;;;5.40;;
50337;SDS011;46221;51.178;5.900;2022-08-19T10:57:33;7.05;;;4.53;;
50337;SDS011;46221;51.178;5.900;2022-08-19T11:00:20;8.50;;;4.90;;
50337;SDS011;46221;51.178;5.900;2022-08-19T11:02:46;7.10;;;5.05;;
50337;SDS011;46221;51.178;5.900;2022-08-19T11:05:13;8.35;;;5.30;;
50337;SDS011;46221;51.178;5.900;2022-08-19T11:07:41;5.57;;;4.55;;
50337;SDS011;46221;51.178;5.900;2022-08-19T11:10:08;6.75;;;4.15;;
50337;SDS011;46221;51.178;5.900;2022-08-19T11:12:38;6.97;;;4.88;;
50337;SDS011;46221;51.178;5.900;2022-08-19T11:15:06;5.90;;;4.53;;
50337;SDS011;46221;51.178;5.900;2022-08-19T11:17:34;5.18;;;4.10;;
50337;SDS011;46221;51.178;5.900;2022-08-19T11:20:02;6.03;;;4.40;;
50337;SDS011;46221;51.178;5.900;2022-08-19T11:22:31;4.78;;;3.80;;
50337;SDS011;46221;51.178;5.900;2022-08-19T11:25:04;7.43;;;3.90;;
50337;SDS011;46221;51.178;5.900;2022-08-19T11:27:30;5.10;;;3.42;;
50337;SDS011;46221;51.178;5.900;2022-08-19T11:29:57;6.30;;;4.07;;
50337;SDS011;46221;51.178;5.900;2022-08-19T11:32:23;5.15;;;3.80;;
50337;SDS011;46221;51.178;5.900;2022-08-19T11:34:49;5.00;;;4.18;;
50337;SDS011;46221;51.178;5.900;2022-08-19T11:37:16;5.25;;;4.07;;
50337;SDS011;46221;51.178;5.900;2022-08-19T11:39:42;5.18;;;4.28;;
50337;SDS011;46221;51.178;5.900;2022-08-19T11:42:19;4.90;;;3.97;;
50337;SDS011;46221;51.178;5.900;2022-08-19T11:47:30;6.18;;;3.92;;
50337;SDS011;46221;51.178;5.900;2022-08-19T11:49:56;5.30;;;3.75;;
50337;SDS011;46221;51.178;5.900;2022-08-19T11:52:23;4.50;;;3.55;;
50337;SDS011;46221;51.178;5.900;2022-08-19T11:54:49;5.28;;;3.70;;
50337;SDS011;46221;51.178;5.900;2022-08-19T11:57:15;4.93;;;3.63;;
50337;SDS011;46221;51.178;5.900;2022-08-19T11:59:47;4.65;;;3.30;;
50337;SDS011;46221;51.178;5.900;2022-08-19T12:02:13;5.85;;;3.83;;
50337;SDS011;46221;51.178;5.900;2022-08-19T12:04:41;5.05;;;3.33;;
50337;SDS011;46221;51.178;5.900;2022-08-19T12:07:07;5.35;;;3.30;;
50337;SDS011;46221;51.178;5.900;2022-08-19T12:09:34;4.97;;;3.70;;
50337;SDS011;46221;51.178;5.900;2022-08-19T12:12:01;4.53;;;3.28;;
50337;SDS011;46221;51.178;5.900;2022-08-19T12:14:28;3.90;;;3.10;;
50337;SDS011;46221;51.178;5.900;2022-08-19T12:16:56;4.15;;;3.28;;
50337;SDS011;46221;51.178;5.900;2022-08-19T12:19:23;4.28;;;3.20;;
50337;SDS011;46221;51.178;5.900;2022-08-19T12:21:51;3.97;;;2.80;;
50337;SDS011;46221;51.178;5.900;2022-08-19T12:24:19;4.45;;;2.88;;
50337;SDS011;46221;51.178;5.900;2022-08-19T12:26:49;4.43;;;3.33;;
50337;SDS011;46221;51.178;5.900;2022-08-19T12:29:18;4.63;;;3.00;;
50337;SDS011;46221;51.178;5.900;2022-08-19T12:31:49;3.97;;;2.75;;
50337;SDS011;46221;51.178;5.900;2022-08-19T12:34:18;4.43;;;2.95;;
50337;SDS011;46221;51.178;5.900;2022-08-19T12:36:46;3.78;;;3.10;;
50337;SDS011;46221;51.178;5.900;2022-08-19T12:39:15;3.70;;;2.70;;
50337;SDS011;46221;51.178;5.900;2022-08-19T12:41:41;4.03;;;3.03;;
50337;SDS011;46221;51.178;5.900;2022-08-19T12:44:19;4.05;;;2.90;;
50337;SDS011;46221;51.178;5.900;2022-08-19T12:46:54;4.90;;;2.85;;
50337;SDS011;46221;51.178;5.900;2022-08-19T12:49:21;4.80;;;2.97;;
50337;SDS011;46221;51.178;5.900;2022-08-19T12:52:08;3.80;;;2.55;;
50337;SDS011;46221;51.178;5.900;2022-08-19T12:54:35;4.07;;;2.85;;
50337;SDS011;46221;51.178;5.900;2022-08-19T12:57:08;5.28;;;3.40;;
50337;SDS011;46221;51.178;5.900;2022-08-19T12:59:35;4.15;;;3.03;;
50337;SDS011;46221;51.178;5.900;2022-08-19T13:02:05;4.43;;;2.50;;
50337;SDS011;46221;51.178;5.900;2022-08-19T13:04:33;4.63;;;3.03;;
50337;SDS011;46221;51.178;5.900;2022-08-19T13:07:02;4.57;;;2.97;;
50337;SDS011;46221;51.178;5.900;2022-08-19T13:09:28;3.28;;;2.60;;
50337;SDS011;46221;51.178;5.900;2022-08-19T13:11:57;3.72;;;2.78;;
50337;SDS011;46221;51.178;5.900;2022-08-19T13:14:24;6.40;;;3.05;;
50337;SDS011;46221;51.178;5.900;2022-08-19T13:16:52;3.60;;;2.67;;
50337;SDS011;46221;51.178;5.900;2022-08-19T13:19:18;3.45;;;2.28;;
50337;SDS011;46221;51.178;5.900;2022-08-19T13:21:49;3.80;;;2.50;;
50337;SDS011;46221;51.178;5.900;2022-08-19T13:24:15;5.60;;;2.58;;
50337;SDS011;46221;51.178;5.900;2022-08-19T13:26:42;4.53;;;2.55;;
50337;SDS011;46221;51.178;5.900;2022-08-19T13:29:09;3.65;;;2.65;;
50337;SDS011;46221;51.178;5.900;2022-08-19T13:31:53;4.22;;;2.38;;
50337;SDS011;46221;51.178;5.900;2022-08-19T13:34:43;4.15;;;2.30;;
50337;SDS011;46221;51.178;5.900;2022-08-19T13:37:12;3.00;;;2.17;;
50337;SDS011;46221;51.178;5.900;2022-08-19T13:39:38;3.72;;;2.35;;
50337;SDS011;46221;51.178;5.900;2022-08-19T13:42:06;3.08;;;2.10;;
50337;SDS011;46221;51.178;5.900;2022-08-19T13:44:33;3.63;;;2.05;;
50337;SDS011;46221;51.178;5.900;2022-08-19T13:47:00;3.10;;;2.15;;
50337;SDS011;46221;51.178;5.900;2022-08-19T13:49:27;3.10;;;2.20;;
50337;SDS011;46221;51.178;5.900;2022-08-19T13:51:57;2.63;;;1.90;;
50337;SDS011;46221;51.178;5.900;2022-08-19T13:54:23;2.80;;;1.90;;
50337;SDS011;46221;51.178;5.900;2022-08-19T13:56:49;3.08;;;2.20;;
50337;SDS011;46221;51.178;5.900;2022-08-19T13:59:16;3.00;;;2.00;;
50337;SDS011;46221;51.178;5.900;2022-08-19T14:01:43;3.00;;;2.03;;
50337;SDS011;46221;51.178;5.900;2022-08-19T14:04:10;3.70;;;2.13;;
50337;SDS011;46221;51.178;5.900;2022-08-19T14:06:36;2.70;;;1.90;;
50337;SDS011;46221;51.178;5.900;2022-08-19T14:09:02;2.88;;;1.75;;
50337;SDS011;46221;51.178;5.900;2022-08-19T14:11:29;2.65;;;1.90;;
50337;SDS011;46221;51.178;5.900;2022-08-19T14:13:56;3.38;;;2.10;;
50337;SDS011;46221;51.178;5.900;2022-08-19T14:16:22;2.70;;;1.85;;
50337;SDS011;46221;51.178;5.900;2022-08-19T14:18:48;3.33;;;1.80;;
50337;SDS011;46221;51.178;5.900;2022-08-19T14:21:16;4.47;;;2.50;;
50337;SDS011;46221;51.178;5.900;2022-08-19T14:23:43;3.33;;;2.10;;
50337;SDS011;46221;51.178;5.900;2022-08-19T14:26:12;3.03;;;1.95;;
50337;SDS011;46221;51.178;5.900;2022-08-19T14:28:39;3.83;;;1.95;;
50337;SDS011;46221;51.178;5.900;2022-08-19T14:31:08;2.85;;;1.77;;
50337;SDS011;46221;51.178;5.900;2022-08-19T14:33:35;3.70;;;2.05;;
50337;SDS011;46221;51.178;5.900;2022-08-19T14:36:01;4.53;;;2.15;;
50337;SDS011;46221;51.178;5.900;2022-08-19T14:38:28;4.15;;;2.15;;
50337;SDS011;46221;51.178;5.900;2022-08-19T14:41:11;3.10;;;2.00;;
50337;SDS011;46221;51.178;5.900;2022-08-19T14:43:39;3.83;;;1.90;;
50337;SDS011;46221;51.178;5.900;2022-08-19T14:46:05;4.93;;;2.00;;
50337;SDS011;46221;51.178;5.900;2022-08-19T14:48:32;2.80;;;1.92;;
50337;SDS011;46221;51.178;5.900;2022-08-19T14:50:58;3.47;;;1.98;;
50337;SDS011;46221;51.178;5.900;2022-08-19T14:53:25;4.57;;;2.20;;
50337;SDS011;46221;51.178;5.900;2022-08-19T14:55:51;3.53;;;2.30;;
50337;SDS011;46221;51.178;5.900;2022-08-19T14:58:17;3.05;;;1.85;;
50337;SDS011;46221;51.178;5.900;2022-08-19T15:00:55;3.72;;;2.00;;
50337;SDS011;46221;51.178;5.900;2022-08-19T15:03:22;3.17;;;1.75;;
50337;SDS011;46221;51.178;5.900;2022-08-19T15:05:48;3.30;;;1.77;;
50337;SDS011;46221;51.178;5.900;2022-08-19T15:08:15;3.05;;;2.00;;